Tiempo atmosférico en la estación meteorológica de Mieres, Asturias (172 m.)



Fecha
DESCASC
Temp. máxima en grados centígrados (hora)
DESCASC
Temp. mínima en grados centígrados (hora)
DESCASC
Temp. media en grados centígrados
DESCASC
Racha de viento máxima en m/sg (hora)
DESCASC
Velocidad máxima media en intervalos de 10 minutos(hora)
DESCASC
Precipitaciones diarias en mm
DESCASC
Precipitaciones de 00:00 a 06:00 en mm
DESCASC
Precipitaciones de 06:00 a 12:00 en mm
DESCASC
Precipitaciones de 12:00 a 18:00 en mm
DESCASC
Precipitaciones de 18:00 a 24:00 en mm
DESCASC

Gráficas

Temp. máximas Temp. mínimas Temp. medias Precipitaciones Rachas de viento máximas Velocidades máximas media en intervalos de 10 minutos

Datos horarios

Fecha y hora oficial Temperatura (ºC) Velocidad del viento (km/h) Dirección del viento Racha (km/h) Dirección de racha Precipitación (mm) Presión (hPa) Tendencia (hPa) Humedad (%)
2021-03-01 23:00:00 10.8 4 Nordeste 11 Este 0.6 -- -- 89
2021-03-01 22:00:00 10.5 0 Calma 12 Nordeste 0 -- -- 85
2021-03-01 21:00:00 11.3 0 Calma 10 Nordeste 0 -- -- 79
2021-03-01 20:00:00 12.1 3 Nordeste 8 Nordeste 0 -- -- 76
2021-03-01 19:00:00 14.9 2 Este 9 Sudoeste 0 -- -- 60
2021-03-01 18:00:00 16.5 5 Sudoeste 21 Sur 0 -- -- 54
2021-03-01 17:00:00 17 11 Sudoeste 28 Sudoeste 0 -- -- 50
2021-03-01 16:00:00 17.2 13 Sudoeste 30 Sudoeste 0 -- -- 48
2021-03-01 15:00:00 15.9 12 Sudoeste 39 Sudoeste 0 -- -- 53
2021-03-01 14:00:00 16.3 12 Sudoeste 37 Sudoeste 0 -- -- 55
2021-03-01 13:00:00 15.7 10 Sudoeste 31 Sudoeste 0 -- -- 57
2021-03-01 12:00:00 13.2 4 Nordeste 11 Este 0 -- -- 71
2021-03-01 11:00:00 10 2 Este 9 Sudeste 0.2 -- -- 92
2021-03-01 10:00:00 9.8 0 Calma 40 Sur 0.6 -- -- 85
2021-03-01 09:00:00 7.6 5 Norte 10 Nordeste 0.2 -- -- 98
2021-03-01 08:00:00 6.9 3 Nordeste 7 Nordeste 0 -- -- 98
2021-03-01 07:00:00 6.8 0 Calma 24 Este 0 -- -- 97
2021-03-01 06:00:00 6.6 0 Calma 5 Norte 0 -- -- 98
2021-03-01 05:00:00 6.7 2 Nordeste 5 Norte 0 -- -- 97
2021-03-01 04:00:00 7 0 Calma 10 Norte 0 -- -- 96
2021-03-01 03:00:00 7.2 3 Oeste 8 Oeste 0 -- -- 96
2021-03-01 02:00:00 7.1 0 Calma 5 Nordeste 0.8 -- -- 96
2021-03-01 01:00:00 7 0 Calma 4 Norte 1 -- -- 93
2021-03-01 00:00:00 7.1 0 Calma 6 Nordeste 0 -- -- 92
2021-02-28 23:00:00 7.2 2 Nordeste 5 Norte 0 -- -- 91
2021-02-28 22:00:00 8.2 0 Calma 9 Nordeste 0 -- -- 87
2021-02-28 21:00:00 9.6 4 Norte 7 Nordeste 0 -- -- 82
2021-02-28 20:00:00 10.5 2 Norte 13 Noroeste 0 -- -- 77
2021-02-28 19:00:00 11.2 5 Norte 16 Norte 0 -- -- 74
2021-02-28 18:00:00 12.6 6 Nordeste 15 Norte 0 -- -- 66
2021-02-28 17:00:00 14 5 Nordeste 16 Norte 0 -- -- 59
2021-02-28 16:00:00 13.7 5 Norte 19 Norte 0 -- -- 59
2021-02-28 15:00:00 14 6 Oeste 20 Sudoeste 0 -- -- 56
2021-02-28 14:00:00 13.8 3 Sudeste 11 Nordeste 0 -- -- 55
2021-02-28 13:00:00 13.1 5 Sur 14 Sudoeste 0 -- -- 54
2021-02-28 12:00:00 12 7 Este 15 Este 0 -- -- 57
2021-02-28 11:00:00 9.7 0 Calma 10 Sudoeste 0 -- -- 68
2021-02-28 10:00:00 8 0 Calma 6 Sudoeste 0 -- -- 86
2021-02-28 09:00:00 7.1 0 Calma 8 Oeste 0 -- -- 90
2021-02-28 08:00:00 7.2 3 Norte 10 Norte 0 -- -- 89
2021-02-28 07:00:00 7.8 3 Sudoeste 6 Noroeste 0 -- -- 88
2021-02-28 06:00:00 7.9 0 Calma 5 Sudoeste 0 -- -- 88
2021-02-28 05:00:00 7.9 0 Calma 3 Sudoeste 0 -- -- 87
2021-02-28 04:00:00 8.1 0 Calma 3 Sudoeste 0 -- -- 86
2021-02-28 03:00:00 8.2 0 Calma 6 Nordeste 0 -- -- 83
2021-02-28 02:00:00 8.4 2 Nordeste 4 Nordeste 0 -- -- 86
2021-02-28 01:00:00 8.6 2 Norte 5 Norte 0 -- -- 83
2021-02-28 00:00:00 8.8 0 Calma 6 Nordeste 0 -- -- 84
2021-02-27 23:00:00 9 2 Nordeste 6 Norte 0 -- -- 84
2021-02-27 22:00:00 9.3 3 Norte 8 Norte 0 -- -- 85
2021-02-27 21:00:00 9.6 4 Norte 12 Norte 0 -- -- 83
2021-02-27 20:00:00 10.2 4 Noroeste 11 Nordeste 0 -- -- 81
2021-02-27 19:00:00 10.9 3 Nordeste 12 Nordeste 0 -- -- 81
2021-02-27 18:00:00 11.4 4 Norte 13 Norte 0 -- -- 80
2021-02-27 17:00:00 11.4 6 Nordeste 18 Norte 0 -- -- 80
2021-02-27 16:00:00 12 8 Nordeste 15 Nordeste 0 -- -- 79
2021-02-27 15:00:00 12 6 Norte 18 Nordeste 0 -- -- 81
2021-02-27 14:00:00 12.1 6 Norte 15 Norte 0 -- -- 83
2021-02-27 13:00:00 12.5 0 Calma 4 Sudoeste 0 -- -- 78
2021-02-27 12:00:00 11.6 0 Calma 2 Sudoeste 0 -- -- 85
2021-02-27 11:00:00 10.9 0 Calma 2 Sudoeste 0 -- -- 94
2021-02-27 10:00:00 10.3 0 Calma 3 Oeste 0 -- -- 97
2021-02-27 09:00:00 10 0 Calma 3 Sur 0 -- -- 98
2021-02-27 08:00:00 9.9 0 Calma 2 Este 0 -- -- 98
2021-02-27 07:00:00 10.1 0 Calma 2 Oeste 0 -- -- 98
2021-02-27 06:00:00 10.2 0 Calma 3 Nordeste 0 -- -- 97
2021-02-27 05:00:00 10.3 0 Calma 3 Sudoeste 0 -- -- 97
2021-02-27 04:00:00 10.3 0 Calma 3 Sudoeste 0 -- -- 97
2021-02-27 03:00:00 10.4 0 Calma 3 Sudoeste 0 -- -- 96
2021-02-27 02:00:00 10.6 0 Calma 5 Noroeste 0 -- -- 96
2021-02-27 01:00:00 10.6 2 Sur 4 Sudoeste 0 -- -- 95
2021-02-27 00:00:00 10.9 0 Calma 6 Sudoeste 0 -- -- 93
2021-02-26 23:00:00 11.1 3 Sudoeste 5 Sudoeste 0 -- -- 90
2021-02-26 22:00:00 11.4 0 Calma 6 Noroeste 0 -- -- 88
2021-02-26 21:00:00 11.6 2 Norte 7 Nordeste 0 -- -- 87
2021-02-26 20:00:00 12 0 Calma 10 Nordeste 0 -- -- 86
2021-02-26 19:00:00 12.5 3 Norte 13 Nordeste 0 -- -- 82
2021-02-26 18:00:00 12.8 6 Nordeste 13 Norte 0 -- -- 80
2021-02-26 17:00:00 13 3 Nordeste 14 Nordeste 0 -- -- 79
2021-02-26 16:00:00 12.7 6 Nordeste 14 Nordeste 0 -- -- 79
2021-02-26 15:00:00 12.8 5 Nordeste 13 Nordeste 0 -- -- 82
2021-02-26 14:00:00 12.9 3 Nordeste 6 Norte 0 -- -- 83
2021-02-26 13:00:00 12.4 0 Calma 4 Noroeste 0 -- -- 88
2021-02-26 12:00:00 11.5 3 Sudoeste 6 Sudoeste 0 -- -- 94
2021-02-26 11:00:00 10.7 0 Calma 4 Sur 0 -- -- 97
2021-02-26 10:00:00 10.3 0 Calma 0 Calma 0 -- -- 99
2021-02-26 09:00:00 10 0 Calma 3 Norte 0 -- -- 99
2021-02-26 08:00:00 9.9 0 Calma 3 Sudoeste 0 -- -- 99
2021-02-26 07:00:00 9.9 3 Nordeste 4 Nordeste 0 -- -- 99
2021-02-26 06:00:00 9.8 0 Calma 2 Norte 0 -- -- 99
2021-02-26 05:00:00 9.8 0 Calma 2 Norte 0 -- -- 99
2021-02-26 04:00:00 9.8 0 Calma 2 Norte 0 -- -- 99
2021-02-26 03:00:00 9.9 0 Calma 2 Nordeste 0.2 -- -- 98
2021-02-26 02:00:00 9.9 0 Calma 2 Sur 0 -- -- 98
2021-02-26 01:00:00 9.9 0 Calma 3 Nordeste 0 -- -- 98
2021-02-26 00:00:00 9.9 0 Calma 6 Sudoeste 0 -- -- 98
2021-02-25 23:00:00 10 0 Calma 4 Sudoeste 0 -- -- 98
2021-02-25 22:00:00 10 0 Calma 4 Norte 0 -- -- 98
2021-02-25 21:00:00 9.9 0 Calma 5 Sudoeste 0 -- -- 97
2021-02-25 20:00:00 10 2 Sur 5 Sudoeste 0 -- -- 95
2021-02-25 19:00:00 10.5 0 Calma 5 Norte 0 -- -- 93
2021-02-25 18:00:00 10.7 2 Nordeste 5 Norte 0 -- -- 91
2021-02-25 17:00:00 10.5 0 Calma 3 Sudoeste 0 -- -- 92
2021-02-25 16:00:00 10.2 0 Calma 3 Sur 0 -- -- 93
2021-02-25 15:00:00 10.1 0 Calma 2 Sur 0.4 -- -- 93
2021-02-25 14:00:00 10.2 2 Este 7 Nordeste 0 -- -- 90
2021-02-25 13:00:00 10.5 0 Calma 5 Sur 0 -- -- 91
2021-02-25 12:00:00 10.3 3 Sudoeste 5 Sur 0 -- -- 92
2021-02-25 11:00:00 9.9 0 Calma 4 Sur 0 -- -- 96
2021-02-25 10:00:00 9.5 0 Calma 4 Sur 0.8 -- -- 96
2021-02-25 09:00:00 9.8 0 Calma 24 Norte 1.6 -- -- 93
2021-02-25 08:00:00 10.2 5 Noroeste 14 Norte 3.6 -- -- 95
2021-02-25 07:00:00 10.5 0 Calma 3 Oeste 2.8 -- -- 96
2021-02-25 06:00:00 10.8 0 Calma 3 Sudoeste 0.8 -- -- 94
2021-02-25 05:00:00 11.5 0 Calma 9 Nordeste 0.4 -- -- 89
2021-02-25 04:00:00 12.1 5 Nordeste 10 Nordeste 0 -- -- 83
2021-02-25 03:00:00 12.1 2 Noroeste 5 Norte 0 -- -- 83
2021-02-25 02:00:00 12.4 0 Calma 11 Noroeste 0 -- -- 81
2021-02-25 01:00:00 13.1 5 Norte 17 Noroeste 0 -- -- 74
2021-02-25 00:00:00 12 0 Calma 4 Sudoeste 0 -- -- 78
2021-02-24 23:00:00 12.1 0 Calma 4 Nordeste 0 -- -- 75
2021-02-24 22:00:00 13.1 0 Calma 10 Nordeste 0 -- -- 68
2021-02-24 21:00:00 14.7 3 Norte 8 Oeste 0 -- -- 60
2021-02-24 20:00:00 16.8 0 Calma 12 Sur 0 -- -- 50
2021-02-24 19:00:00 18.5 3 Nordeste 22 Sudoeste 0 -- -- 42
2021-02-24 18:00:00 19.9 7 Sur 26 Sudoeste 0 -- -- 38
2021-02-24 17:00:00 20.9 10 Sudoeste 41 Sudoeste 0 -- -- 33
2021-02-24 16:00:00 21.6 16 Sudoeste 31 Sudoeste 0 -- -- 32
2021-02-24 15:00:00 21.2 8 Norte 29 Sudoeste 0 -- -- 33
2021-02-24 14:00:00 19.6 6 Sur 34 Sudoeste 0 -- -- 36
2021-02-24 13:00:00 19.8 12 Sudoeste 40 Sudoeste 0 -- -- 35
2021-02-24 12:00:00 19.2 11 Sudoeste 37 Oeste 0 -- -- 34
2021-02-24 11:00:00 17.8 14 Sudoeste 43 Sudoeste 0 -- -- 38
2021-02-24 10:00:00 16.7 12 Sudoeste 40 Sudoeste 0 -- -- 40
2021-02-24 09:00:00 15.3 12 Sur 44 Sudoeste 0 -- -- 41
2021-02-24 08:00:00 15.4 8 Noroeste 42 Sudoeste 0 -- -- 43
2021-02-24 07:00:00 15.5 7 Noroeste 33 Sudoeste 0 -- -- 41
2021-02-24 06:00:00 15.9 14 Sudoeste 33 Sudoeste 0 -- -- 38
2021-02-24 05:00:00 16 10 Oeste 45 Sudoeste 0 -- -- 36
2021-02-24 04:00:00 16.1 9 Oeste 49 Sur 0 -- -- 37
2021-02-24 03:00:00 16.1 12 Sudoeste 42 Sudoeste 0 -- -- 36
2021-02-24 02:00:00 16 13 Sur 37 Sudoeste 0 -- -- 37
2021-02-24 01:00:00 16.4 12 Sur 36 Sudoeste 0 -- -- 35
2021-02-24 00:00:00 16.3 10 Sur 35 Sur 0 -- -- 37
2021-02-23 23:00:00 16 9 Sur 33 Sudoeste 0 -- -- 40
2021-02-23 22:00:00 16.2 12 Sur 41 Sudoeste 0 -- -- 40
2021-02-23 21:00:00 16.5 9 Sur 39 Sudoeste 0 -- -- 38
2021-02-23 20:00:00 16.8 13 Sudoeste 44 Sur 0 -- -- 38
2021-02-23 19:00:00 17.4 13 Sudoeste 49 Sudoeste 0 -- -- 36
2021-02-23 18:00:00 18.7 13 Oeste 44 Sudoeste 0 -- -- 36
2021-02-23 17:00:00 19.1 18 Sudoeste 44 Sudoeste 0 -- -- 35
2021-02-23 16:00:00 19.4 14 Sudoeste 37 Sudoeste 0 -- -- 35
2021-02-23 15:00:00 19.2 10 Sudoeste 53 Sudoeste 0 -- -- 36
2021-02-23 14:00:00 18.2 21 Sudoeste 46 Sudoeste 0 -- -- 36
2021-02-23 13:00:00 17.7 17 Sur 49 Sur 0 -- -- 36
2021-02-23 12:00:00 17.2 21 Sudoeste 58 Sur 0 -- -- 37
2021-02-23 11:00:00 16 27 Sudoeste 66 Sudoeste 0 -- -- 41
2021-02-23 10:00:00 15.3 22 Sudoeste 56 Sur 0 -- -- 41
2021-02-23 09:00:00 14.3 13 Sur 47 Sudoeste 0 -- -- 38
2021-02-23 08:00:00 13.5 8 Sur 35 Sudeste 0 -- -- 39
2021-02-23 07:00:00 12.1 6 Sur 28 Noroeste 0 -- -- 44
2021-02-23 06:00:00 8.7 6 Sudeste 33 Oeste 0 -- -- 57
2021-02-23 05:00:00 7.4 6 Nordeste 23 Oeste 0 -- -- 66
2021-02-23 04:00:00 8.1 5 Norte 17 Norte 0 -- -- 61
2021-02-23 03:00:00 7.5 9 Nordeste 23 Este 0 -- -- 66
2021-02-23 02:00:00 6.1 10 Nordeste 19 Nordeste 0 -- -- 80
2021-02-23 01:00:00 5.3 6 Nordeste 14 Nordeste 0 -- -- 87
2021-02-23 00:00:00 4.7 3 Este 6 Nordeste 0 -- -- 91
2021-02-22 23:00:00 5.1 0 Calma 6 Nordeste 0 -- -- 93
2021-02-22 22:00:00 5.7 0 Calma 4 Noroeste 0 -- -- 92
2021-02-22 21:00:00 6.7 0 Calma 4 Nordeste 0 -- -- 90
2021-02-22 20:00:00 8.4 0 Calma 4 Nordeste 0 -- -- 84
2021-02-22 19:00:00 10.6 0 Calma 10 Oeste 0 -- -- 72
2021-02-22 18:00:00 15.1 5 Oeste 12 Oeste 0 -- -- 55
2021-02-22 17:00:00 16.1 6 Norte 14 Noroeste 0 -- -- 43
2021-02-22 16:00:00 16.2 5 Nordeste 14 Norte 0 -- -- 37
2021-02-22 15:00:00 15.8 4 Norte 10 Nordeste 0 -- -- 38
2021-02-22 14:00:00 14.3 5 Nordeste 14 Este 0 -- -- 46
2021-02-22 13:00:00 13 5 Este 13 Nordeste 0 -- -- 53
2021-02-22 12:00:00 11 6 Este 12 Este 0 -- -- 73
2021-02-22 11:00:00 7.9 2 Sur 8 Nordeste 0 -- -- 84
2021-02-22 10:00:00 5.2 2 Sudoeste 7 Sudeste 0 -- -- 96
2021-02-22 09:00:00 4.1 2 Sudeste 8 Sudeste 0 -- -- 97
2021-02-22 08:00:00 4.2 3 Sur 9 Sudeste 0 -- -- 97
2021-02-22 07:00:00 4.1 0 Calma 5 Sudeste 0 -- -- 97
2021-02-22 06:00:00 4.7 0 Calma 8 Sudeste 0 -- -- 95
2021-02-22 05:00:00 5.3 0 Calma 4 Norte 0 -- -- 94
2021-02-22 04:00:00 5.6 2 Sur 8 Sudoeste 0 -- -- 93
2021-02-22 03:00:00 5.7 0 Calma 8 Este 0.2 -- -- 92
2021-02-22 02:00:00 5.7 2 Sur 9 Sudeste 0 -- -- 92
2021-02-22 01:00:00 5.6 4 Sudeste 9 Sur 0 -- -- 95
2021-02-22 00:00:00 5.6 3 Sudoeste 8 Sudeste 0.2 -- -- 96
2021-02-21 23:00:00 5.4 3 Este 11 Sudeste 0.8 -- -- 93
2021-02-21 22:00:00 5.8 3 Sudeste 8 Sur 0 -- -- 92
2021-02-21 21:00:00 5.9 3 Este 18 Nordeste 0.2 -- -- 92
2021-02-21 20:00:00 6.1 6 Nordeste 16 Este 0.6 -- -- 92
2021-02-21 19:00:00 6.8 4 Este 10 Este 0.8 -- -- 95
2021-02-21 18:00:00 7.4 2 Sudeste 4 Sudeste 1.4 -- -- 96
2021-02-21 17:00:00 7.7 2 Nordeste 4 Nordeste 2.2 -- -- 96
2021-02-21 16:00:00 7.6 0 Calma 6 Norte 2.6 -- -- 94
2021-02-21 15:00:00 7.7 5 Nordeste 13 Norte 2 -- -- 92
2021-02-21 14:00:00 8.3 5 Nordeste 17 Oeste 2.2 -- -- 88
2021-02-21 13:00:00 9.4 5 Norte 13 Nordeste 3.6 -- -- 90
2021-02-21 12:00:00 9.9 3 Sudoeste 12 Nordeste 1.2 -- -- 93
2021-02-21 11:00:00 10 6 Nordeste 12 Norte 0.2 -- -- 92
2021-02-21 10:00:00 10.2 4 Norte 16 Norte 0.2 -- -- 93
2021-02-21 09:00:00 10.8 0 Calma 5 Sudoeste 0 -- -- 91
2021-02-21 08:00:00 10.7 0 Calma 5 Nordeste 0 -- -- 90
2021-02-21 07:00:00 11.1 4 Oeste 8 Norte 0 -- -- 88
2021-02-21 06:00:00 10.7 0 Calma 5 Sur 0 -- -- 86
2021-02-21 05:00:00 9.9 0 Calma 5 Sudoeste 0 -- -- 79
2021-02-21 04:00:00 10.6 0 Calma 14 Este 0 -- -- 71
2021-02-21 03:00:00 13 2 Sur 18 Oeste 0 -- -- 57
2021-02-21 02:00:00 14.9 10 Sudoeste 26 Sudoeste 0 -- -- 50
2021-02-21 01:00:00 15.3 4 Sur 39 Oeste 0 -- -- 51
2021-02-21 00:00:00 16 15 Sudoeste 33 Sudoeste 0 -- -- 48
2021-02-20 23:00:00 15 5 Oeste 22 Sudoeste 0 -- -- 52
2021-02-20 22:00:00 14.3 4 Nordeste 31 Este 0 -- -- 58
2021-02-20 21:00:00 14.8 7 Nordeste 26 Este 0 -- -- 56
2021-02-20 20:00:00 15.4 10 Nordeste 38 Nordeste 0 -- -- 56
2021-02-20 19:00:00 15.6 11 Nordeste 41 Nordeste 0 -- -- 55
2021-02-20 18:00:00 16.4 12 Nordeste 40 Este 0 -- -- 52
2021-02-20 17:00:00 17.5 19 Nordeste 50 Nordeste 0 -- -- 49
2021-02-20 16:00:00 17.7 23 Este 50 Este 0 -- -- 46
2021-02-20 15:00:00 17.9 11 Nordeste 58 Oeste 0 -- -- 46
2021-02-20 14:00:00 17.8 26 Sudoeste 57 Oeste 0 -- -- 46
2021-02-20 13:00:00 17.4 23 Sudoeste 70 Sudoeste 0 -- -- 46
2021-02-20 12:00:00 17.8 34 Sudoeste 63 Sudoeste 0 -- -- 43
2021-02-20 11:00:00 17.6 28 Sudoeste 76 Sur 0 -- -- 43
2021-02-20 10:00:00 16.6 34 Sudoeste 71 Sudoeste 0 -- -- 45
2021-02-20 09:00:00 16.4 34 Sudoeste 70 Sudoeste 0 -- -- 44
2021-02-20 08:00:00 16.4 30 Sudoeste 64 Sudoeste 0 -- -- 43
2021-02-20 07:00:00 17.1 23 Sudoeste 69 Oeste 0 -- -- 42
2021-02-20 06:00:00 16.8 18 Oeste 50 Sudoeste 0 -- -- 45
2021-02-20 05:00:00 17 10 Este 44 Este 0 -- -- 45
2021-02-20 04:00:00 17.6 10 Este 41 Este 0 -- -- 43
2021-02-20 03:00:00 17.8 15 Sudeste 58 Este 0 -- -- 44
2021-02-20 02:00:00 16.7 9 Nordeste 30 Este 0 -- -- 49
2021-02-20 01:00:00 16.8 7 Oeste 32 Nordeste 0 -- -- 48
2021-02-20 00:00:00 16.4 7 Norte 20 Sudeste 0 -- -- 49
2021-02-19 23:00:00 15.5 6 Sur 27 Sur 0 -- -- 52
2021-02-19 22:00:00 16.4 7 Sudeste 24 Sudeste 0 -- -- 47
2021-02-19 21:00:00 16.8 5 Sudoeste 18 Sudoeste 0 -- -- 47
2021-02-19 20:00:00 16.8 8 Sur 33 Sudoeste 0 -- -- 45
2021-02-19 19:00:00 17.1 6 Noroeste 32 Sudoeste 0 -- -- 44
2021-02-19 18:00:00 17.7 10 Oeste 42 Sudoeste 0 -- -- 46
2021-02-19 17:00:00 17.9 15 Sudoeste 30 Sudoeste 0 -- -- 45
2021-02-19 16:00:00 17.7 4 Este 29 Oeste 0 -- -- 45
2021-02-19 15:00:00 18 12 Sudoeste 39 Sudoeste 0 -- -- 46
2021-02-19 14:00:00 17.7 8 Sudoeste 48 Oeste 0 -- -- 48
2021-02-19 13:00:00 17.3 18 Sudoeste 43 Oeste 0 -- -- 48
2021-02-19 12:00:00 16.7 15 Sudoeste 46 Sudoeste 0 -- -- 49
2021-02-19 11:00:00 16.4 13 Norte 29 Nordeste 0 -- -- 49
2021-02-19 10:00:00 16.2 13 Oeste 37 Sudoeste 0 -- -- 50
2021-02-19 09:00:00 15.7 9 Norte 39 Este 0 -- -- 49
2021-02-19 08:00:00 15.2 10 Oeste 33 Oeste 0 -- -- 50
2021-02-19 07:00:00 11.7 9 Este 25 Este 0.2 -- -- 68
2021-02-19 06:00:00 6.4 3 Norte 7 Norte 0 -- -- 99
2021-02-19 05:00:00 5.8 2 Sudoeste 5 Sur 0 -- -- 99
2021-02-19 04:00:00 5.9 0 Calma 6 Sudeste 0 -- -- 99
2021-02-19 03:00:00 6.8 0 Calma 5 Nordeste 0 -- -- 99
2021-02-19 02:00:00 7.1 0 Calma 4 Sudoeste 0 -- -- 99
2021-02-19 01:00:00 6.9 0 Calma 3 Nordeste 0 -- -- 98
2021-02-19 00:00:00 6.6 0 Calma 4 Noroeste 0 -- -- 98
2021-02-18 23:00:00 6.8 0 Calma 4 Nordeste 0 -- -- 97
2021-02-18 22:00:00 7.4 0 Calma 5 Nordeste 0 -- -- 95
2021-02-18 21:00:00 8.5 0 Calma 4 Norte 0 -- -- 92
2021-02-18 20:00:00 10.1 0 Calma 7 Sur 0 -- -- 87
2021-02-18 19:00:00 11.8 3 Norte 16 Noroeste 0 -- -- 81
2021-02-18 18:00:00 13.5 4 Noroeste 17 Oeste 0 -- -- 72
2021-02-18 17:00:00 14.3 0 Calma 8 Nordeste 0 -- -- 66
2021-02-18 16:00:00 13.7 0 Calma 9 Sudoeste 0 -- -- 72
2021-02-18 15:00:00 12.4 3 Nordeste 13 Nordeste 0 -- -- 78
2021-02-18 14:00:00 13 2 Este 9 Nordeste 0 -- -- 74
2021-02-18 13:00:00 12.1 3 Sudeste 8 Norte 0.2 -- -- 85
2021-02-18 12:00:00 11.7 4 Nordeste 13 Nordeste 0.2 -- -- 84
2021-02-18 11:00:00 11.1 8 Nordeste 13 Norte 0 -- -- 89
2021-02-18 10:00:00 11.2 2 Noroeste 12 Nordeste 0.2 -- -- 91
2021-02-18 09:00:00 10.9 0 Calma 5 Norte 0.2 -- -- 93
2021-02-18 08:00:00 11.6 0 Calma 22 Nordeste 0 -- -- 86
2021-02-18 07:00:00 12.1 3 Sudoeste 25 Norte 0 -- -- 82
2021-02-18 06:00:00 12.6 7 Norte 21 Norte 0 -- -- 79
2021-02-18 05:00:00 12.2 5 Sudoeste 13 Oeste 0 -- -- 80
2021-02-18 04:00:00 11.3 2 Sur 5 Sur 0 -- -- 87
2021-02-18 03:00:00 10.8 3 Noroeste 7 Sudoeste 0 -- -- 91
2021-02-18 02:00:00 10.9 2 Noroeste 10 Sudoeste 0 -- -- 90
2021-02-18 01:00:00 11.7 3 Oeste 10 Nordeste 0 -- -- 85
2021-02-18 00:00:00 12.6 3 Este 8 Sudoeste 0 -- -- 77
2021-02-17 23:00:00 12.6 2 Este 10 Sudoeste 0 -- -- 76
2021-02-17 22:00:00 13.8 5 Nordeste 12 Nordeste 0 -- -- 70
2021-02-17 21:00:00 16.3 4 Sudeste 18 Sudoeste 0 -- -- 57
2021-02-17 20:00:00 15.7 3 Sur 14 Sur 0 -- -- 59
2021-02-17 19:00:00 16.8 7 Sudoeste 25 Sudoeste 0 -- -- 50
2021-02-17 18:00:00 18.2 16 Sudoeste 41 Sudoeste 0 -- -- 44
2021-02-17 17:00:00 18.9 10 Sudoeste 23 Sudoeste 0 -- -- 40
2021-02-17 16:00:00 17.9 10 Sudoeste 41 Sudoeste 0 -- -- 41
2021-02-17 15:00:00 17.8 9 Sudoeste 40 Sudoeste 0 -- -- 41
2021-02-17 14:00:00 17.1 9 Sudoeste 33 Sudoeste 0 -- -- 43
2021-02-17 13:00:00 14.8 10 Sudoeste 27 Sudoeste 0 -- -- 51
2021-02-17 12:00:00 7.9 0 Calma 6 Sur 0 -- -- 89
2021-02-17 11:00:00 5.7 0 Calma 5 Sur 0 -- -- 100
2021-02-17 10:00:00 3.4 0 Calma 5 Norte 0 -- -- 100
2021-02-17 09:00:00 2.4 0 Calma 4 Nordeste 0 -- -- 100
2021-02-17 08:00:00 2.7 0 Calma 5 Norte 0 -- -- 100
2021-02-17 07:00:00 3 0 Calma 5 Nordeste 0 -- -- 100
2021-02-17 06:00:00 3.2 0 Calma 3 Nordeste 0 -- -- 99
2021-02-17 05:00:00 3.6 2 Nordeste 5 Nordeste 0 -- -- 99
2021-02-17 04:00:00 4.1 0 Calma 3 Nordeste 0 -- -- 99
2021-02-17 03:00:00 4.5 0 Calma 3 Nordeste 0 -- -- 99
2021-02-17 02:00:00 4.9 0 Calma 3 Nordeste 0 -- -- 98
2021-02-17 01:00:00 5.7 0 Calma 3 Nordeste 0 -- -- 98
2021-02-17 00:00:00 6.2 0 Calma 3 Nordeste 0 -- -- 97
2021-02-16 23:00:00 7 0 Calma 4 Nordeste 0 -- -- 96
2021-02-16 22:00:00 8 4 Nordeste 5 Nordeste 0 -- -- 95
2021-02-16 21:00:00 9 2 Norte 6 Nordeste 0 -- -- 93
2021-02-16 20:00:00 10.4 0 Calma 5 Nordeste 0 -- -- 90
2021-02-16 19:00:00 12.8 0 Calma 5 Oeste 0 -- -- 84
2021-02-16 18:00:00 15.1 3 Sudoeste 9 Sudoeste 0 -- -- 75
2021-02-16 17:00:00 15.7 4 Oeste 9 Nordeste 0 -- -- 70
2021-02-16 16:00:00 16.5 2 Nordeste 12 Este 0 -- -- 66
2021-02-16 15:00:00 14.1 2 Nordeste 8 Sudeste 0 -- -- 83
2021-02-16 14:00:00 12.4 3 Nordeste 8 Nordeste 0.2 -- -- 88
2021-02-16 13:00:00 11.5 2 Este 10 Nordeste 0 -- -- 89
2021-02-16 12:00:00 11.4 0 Calma 7 Norte 0.6 -- -- 89
2021-02-16 11:00:00 11.9 3 Oeste 18 Norte 0 -- -- 77
2021-02-16 10:00:00 14.4 13 Norte 27 Norte 0 -- -- 57
2021-02-16 09:00:00 16.4 6 Sur 26 Sudeste 0 -- -- 43
2021-02-16 08:00:00 16.6 8 Sur 30 Sudoeste 0 -- -- 43
2021-02-16 07:00:00 16.5 9 Sur 28 Sudoeste 0 -- -- 45
2021-02-16 06:00:00 16.3 5 Sur 25 Oeste 0 -- -- 49
2021-02-16 05:00:00 15.3 5 Sur 15 Sur 0 -- -- 53
2021-02-16 04:00:00 16.8 5 Sudoeste 24 Sudoeste 0 -- -- 45
2021-02-16 03:00:00 17.8 6 Sudeste 31 Sur 0 -- -- 40
2021-02-16 02:00:00 18.1 5 Noroeste 21 Nordeste 0 -- -- 41
2021-02-16 01:00:00 18.7 5 Nordeste 28 Sudoeste 0 -- -- 39
2021-02-16 00:00:00 19 10 Norte 27 Sur 0 -- -- 40
2021-02-15 23:00:00 19.1 6 Este 32 Este 0 -- -- 41
2021-02-15 22:00:00 19.1 5 Noroeste 31 Nordeste 0 -- -- 40
2021-02-15 21:00:00 19.5 9 Sur 40 Sur 0 -- -- 39
2021-02-15 20:00:00 19.6 9 Sur 30 Sur 0 -- -- 39
2021-02-15 19:00:00 19.9 8 Sur 34 Este 0 -- -- 36
2021-02-15 18:00:00 20.4 13 Sudoeste 46 Sudoeste 0 -- -- 36
2021-02-15 17:00:00 21.5 14 Sudoeste 43 Este 0 -- -- 34
2021-02-15 16:00:00 21.4 13 Sudoeste 52 Este 0 -- -- 33
2021-02-15 15:00:00 21.5 17 Sudoeste 38 Oeste 0 -- -- 32
2021-02-15 14:00:00 20.8 13 Sur 35 Sudoeste 0 -- -- 31
2021-02-15 13:00:00 20.7 14 Sur 38 Sur 0 -- -- 28
2021-02-15 12:00:00 18.9 11 Sur 41 Sudeste 0 -- -- 36
2021-02-15 11:00:00 15.2 6 Norte 20 Nordeste 0 -- -- 41
2021-02-15 10:00:00 11 3 Sudoeste 7 Oeste 0 -- -- 71
2021-02-15 09:00:00 10.2 3 Sur 9 Norte 0 -- -- 75
2021-02-15 08:00:00 11.2 4 Oeste 11 Nordeste 0 -- -- 68
2021-02-15 07:00:00 13.4 4 Oeste 15 Nordeste 0 -- -- 57
2021-02-15 06:00:00 15.5 8 Nordeste 15 Nordeste 0 -- -- 46
2021-02-15 05:00:00 18.6 5 Sur 27 Sudoeste 0 -- -- 34
2021-02-15 04:00:00 18.9 13 Sudoeste 32 Sudoeste 0 -- -- 35
2021-02-15 03:00:00 18.9 11 Sur 36 Sudoeste 0 -- -- 37
2021-02-15 02:00:00 19.1 15 Sudoeste 36 Sur 0 -- -- 40
2021-02-15 01:00:00 19.1 15 Sudoeste 37 Sudoeste 0 -- -- 41
2021-02-15 00:00:00 19.1 14 Sur 39 Sudoeste 0 -- -- 40
2021-02-14 23:00:00 18.7 14 Sur 37 Sudeste 0 -- -- 41
2021-02-14 22:00:00 18.4 14 Sudoeste 47 Sudoeste 0 -- -- 45
2021-02-14 21:00:00 17.9 17 Sudoeste 37 Sudoeste 0 -- -- 48
2021-02-14 20:00:00 17.4 12 Sur 42 Sudoeste 0 -- -- 49
2021-02-14 19:00:00 17.5 18 Sudoeste 41 Sudoeste 0 -- -- 51
2021-02-14 18:00:00 18.1 18 Sudoeste 40 Sudoeste 0 -- -- 49
2021-02-14 17:00:00 19.2 9 Sur 40 Sudoeste 0 -- -- 47
2021-02-14 16:00:00 19.6 9 Sur 39 Sudoeste 0 -- -- 46
2021-02-14 15:00:00 21.1 10 Sur 32 Sudoeste 0 -- -- 39
2021-02-14 14:00:00 21.4 10 Sudoeste 35 Sudoeste 0 -- -- 38
2021-02-14 13:00:00 20.4 9 Sur 29 Nordeste 0 -- -- 42
2021-02-14 12:00:00 18 11 Sur 46 Sudoeste 0 -- -- 49
2021-02-14 11:00:00 10.9 4 Sudoeste 8 Oeste 0 -- -- 83
2021-02-14 10:00:00 8.7 3 Sur 11 Nordeste 0 -- -- 90
2021-02-14 09:00:00 7.4 5 Este 12 Nordeste 0 -- -- 95
2021-02-14 08:00:00 6.6 3 Sudeste 18 Norte 0 -- -- 94
2021-02-14 07:00:00 6.5 2 Sudeste 19 Este 0 -- -- 95
2021-02-14 06:00:00 7.2 9 Nordeste 20 Nordeste 0 -- -- 93
2021-02-14 05:00:00 6.6 2 Nordeste 13 Nordeste 0 -- -- 95
2021-02-14 04:00:00 6.9 5 Nordeste 15 Nordeste 0 -- -- 97
2021-02-14 03:00:00 7.1 3 Nordeste 8 Sur 0 -- -- 97
2021-02-14 02:00:00 7.8 3 Nordeste 11 Norte 0 -- -- 98
2021-02-14 01:00:00 7.6 0 Calma 6 Norte 0 -- -- 97
2021-02-14 00:00:00 8.5 0 Calma 6 Norte 0 -- -- 97
2021-02-13 23:00:00 8.5 0 Calma 5 Norte 0 -- -- 96
2021-02-13 22:00:00 9.7 2 Sudoeste 16 Nordeste 0 -- -- 95
2021-02-13 21:00:00 10.1 0 Calma 2 Nordeste 0 -- -- 95
2021-02-13 20:00:00 11 0 Calma 3 Sudoeste 0 -- -- 90
2021-02-13 19:00:00 13.2 0 Calma 4 Sudoeste 0 -- -- 84
2021-02-13 18:00:00 15.8 3 Sudoeste 6 Noroeste 0 -- -- 73
2021-02-13 17:00:00 17.2 0 Calma 14 Norte 0 -- -- 63
2021-02-13 16:00:00 18 7 Norte 14 Noroeste 0 -- -- 58
2021-02-13 15:00:00 18 4 Oeste 16 Noroeste 0 -- -- 58
2021-02-13 14:00:00 16.5 5 Este 19 Nordeste 0 -- -- 60
2021-02-13 13:00:00 14.1 7 Este 20 Nordeste 0 -- -- 67
2021-02-13 08:00:00 6 0 Calma 5 Norte 0 -- -- 99
2021-02-13 07:00:00 5.7 0 Calma 5 Nordeste 0 -- -- 98
2021-02-13 06:00:00 6 3 Sudoeste 9 Norte 0 -- -- 99
2021-02-13 05:00:00 5.9 3 Nordeste 5 Nordeste 0 -- -- 99
2021-02-13 04:00:00 6.4 0 Calma 5 Norte 0 -- -- 99
2021-02-13 03:00:00 6.3 2 Nordeste 4 Norte 0 -- -- 99
2021-02-13 02:00:00 6.2 2 Noroeste 5 Norte 0 -- -- 99
2021-02-13 01:00:00 6.4 0 Calma 3 Nordeste 0 -- -- 98
2021-02-13 00:00:00 7 0 Calma 2 Nordeste 0 -- -- 98
2021-02-12 23:00:00 7.2 0 Calma 3 Nordeste 0 -- -- 96
2021-02-12 22:00:00 7.9 0 Calma 5 Norte 0 -- -- 95
2021-02-12 21:00:00 8.7 0 Calma 4 Sudoeste 0 -- -- 93
2021-02-12 20:00:00 9.9 0 Calma 4 Oeste 0 -- -- 88
2021-02-12 19:00:00 12.2 0 Calma 6 Oeste 0 -- -- 78
2021-02-12 18:00:00 15.6 2 Sudoeste 15 Norte 0 -- -- 63
2021-02-12 17:00:00 16.7 7 Noroeste 19 Oeste 0 -- -- 51
2021-02-12 16:00:00 17.7 8 Oeste 23 Sudoeste 0 -- -- 48
2021-02-12 15:00:00 16.9 10 Sudoeste 20 Norte 0 -- -- 51
2021-02-12 14:00:00 15.5 6 Oeste 22 Oeste 0 -- -- 61
2021-02-12 13:00:00 13.7 2 Sur 8 Nordeste 0 -- -- 81
2021-02-12 12:00:00 11.9 0 Calma 12 Este 0 -- -- 92
2021-02-12 11:00:00 10.9 2 Nordeste 8 Sudeste 0.4 -- -- 98
2021-02-12 10:00:00 10.5 4 Nordeste 7 Este 0 -- -- 99
2021-02-12 09:00:00 10.2 0 Calma 10 Nordeste 0.6 -- -- 99
2021-02-12 08:00:00 10.3 3 Nordeste 7 Nordeste 2.2 -- -- 98
2021-02-12 07:00:00 11 2 Nordeste 11 Sudoeste 0.4 -- -- 95
2021-02-12 06:00:00 11 6 Norte 10 Nordeste 1 -- -- 100
2021-02-12 05:00:00 10.9 0 Calma 6 Sudoeste 0 -- -- 100
2021-02-12 04:00:00 11.2 0 Calma 6 Sudeste 0 -- -- 100
2021-02-12 03:00:00 11.3 2 Nordeste 5 Norte 0.4 -- -- 100
2021-02-12 02:00:00 11.3 2 Nordeste 4 Nordeste 1.2 -- -- 99
2021-02-12 01:00:00 11.4 0 Calma 3 Noroeste 1.6 -- -- 99
2021-02-12 00:00:00 11.5 0 Calma 5 Nordeste 0.6 -- -- 98
2021-02-11 23:00:00 11.5 0 Calma 6 Oeste 0 -- -- 97
2021-02-11 22:00:00 11.8 0 Calma 4 Noroeste 0 -- -- 96
2021-02-11 21:00:00 12.8 0 Calma 7 Este 0.4 -- -- 94
2021-02-11 20:00:00 13.7 2 Este 10 Nordeste 0 -- -- 86
2021-02-11 19:00:00 14.7 3 Sudeste 14 Norte 0 -- -- 79
2021-02-11 18:00:00 15.6 3 Norte 9 Nordeste 0 -- -- 76
2021-02-11 17:00:00 16.1 6 Este 14 Nordeste 0 -- -- 72
2021-02-11 16:00:00 16.1 0 Calma 5 Este 0 -- -- 71
2021-02-11 15:00:00 15 0 Calma 6 Sudoeste 0 -- -- 75
2021-02-11 14:00:00 12.7 0 Calma 8 Sudoeste 0 -- -- 86
2021-02-11 13:00:00 10.6 0 Calma 6 Nordeste 0 -- -- 91
2021-02-11 12:00:00 9.4 0 Calma 4 Nordeste 0.2 -- -- 95
2021-02-11 11:00:00 8.8 2 Sudoeste 4 Oeste 0 -- -- 95
2021-02-11 10:00:00 8.1 4 Nordeste 9 Nordeste 0 -- -- 98
2021-02-11 09:00:00 7.2 3 Nordeste 6 Nordeste 0 -- -- 98
2021-02-11 08:00:00 6.9 3 Sur 5 Nordeste 0 -- -- 96
2021-02-11 07:00:00 7.9 0 Calma 6 Este 0 -- -- 94
2021-02-11 06:00:00 8.4 3 Este 9 Este 0 -- -- 94
2021-02-11 05:00:00 8.6 0 Calma 3 Sur 0 -- -- 95
2021-02-11 04:00:00 8.9 0 Calma 5 Oeste 0 -- -- 92
2021-02-11 03:00:00 8.9 0 Calma 6 Nordeste 0 -- -- 88
2021-02-11 02:00:00 8.7 2 Nordeste 4 Nordeste 0 -- -- 91
2021-02-11 01:00:00 8.6 0 Calma 4 Nordeste 0 -- -- 91
2021-02-11 00:00:00 8.7 2 Oeste 5 Nordeste 0 -- -- 90
2021-02-10 23:00:00 8.7 2 Norte 4 Norte 0 -- -- 90
2021-02-10 22:00:00 9 0 Calma 4 Oeste 0 -- -- 88
2021-02-10 21:00:00 9.6 0 Calma 3 Oeste 0 -- -- 85
2021-02-10 20:00:00 10.9 2 Noroeste 9 Norte 0 -- -- 77
2021-02-10 19:00:00 12.1 2 Sudoeste 14 Noroeste 0 -- -- 71
2021-02-10 18:00:00 13.8 4 Noroeste 13 Oeste 0 -- -- 55
2021-02-10 17:00:00 15.1 7 Norte 21 Noroeste 0 -- -- 51
2021-02-10 16:00:00 15.3 8 Norte 26 Nordeste 0 -- -- 48
2021-02-10 15:00:00 15.2 10 Norte 28 Nordeste 0 -- -- 50
2021-02-10 14:00:00 14.9 11 Norte 41 Nordeste 0.2 -- -- 52
2021-02-10 13:00:00 14.3 9 Norte 23 Oeste 0 -- -- 52
2021-02-10 12:00:00 14.4 3 Oeste 29 Oeste 0 -- -- 51
2021-02-10 11:00:00 12.7 10 Oeste 27 Oeste 0 -- -- 54
2021-02-10 10:00:00 11 12 Noroeste 33 Noroeste 0 -- -- 59
2021-02-10 09:00:00 8.6 7 Noroeste 24 Norte 0 -- -- 69
2021-02-10 08:00:00 6.8 5 Nordeste 18 Este 0 -- -- 91
2021-02-10 07:00:00 6.2 5 Este 20 Sudeste 0 -- -- 96
2021-02-10 06:00:00 5.9 2 Este 7 Este 0 -- -- 97
2021-02-10 05:00:00 6.2 0 Calma 4 Nordeste 0 -- -- 97
2021-02-10 04:00:00 6.2 0 Calma 4 Nordeste 0 -- -- 96
2021-02-10 03:00:00 6.5 3 Nordeste 6 Norte 0.4 -- -- 94
2021-02-10 02:00:00 6.9 0 Calma 3 Norte 0.2 -- -- 89
2021-02-10 01:00:00 7 0 Calma 5 Nordeste 0 -- -- 82
2021-02-10 00:00:00 6.6 0 Calma 5 Sudoeste 0 -- -- 82
2021-02-09 23:00:00 7.4 2 Este 9 Norte 0 -- -- 76
2021-02-09 22:00:00 9.1 0 Calma 8 Nordeste 0 -- -- 68
2021-02-09 21:00:00 11 6 Norte 18 Sudoeste 0 -- -- 56
2021-02-09 20:00:00 11.9 6 Sur 24 Sudoeste 0 -- -- 49
2021-02-09 19:00:00 12.6 5 Sur 23 Oeste 0 -- -- 48
2021-02-09 18:00:00 14.1 5 Sudoeste 18 Sudoeste 0 -- -- 42
2021-02-09 17:00:00 15.9 6 Sudoeste 25 Oeste 0 -- -- 34
2021-02-09 16:00:00 15.8 12 Sudoeste 35 Oeste 0 -- -- 31
2021-02-09 15:00:00 16.1 10 Oeste 36 Oeste 0 -- -- 31
2021-02-09 14:00:00 15.8 8 Nordeste 24 Noroeste 0 -- -- 38
2021-02-09 13:00:00 13.6 6 Nordeste 27 Sur 0 -- -- 42
2021-02-09 12:00:00 12.4 9 Sudeste 35 Sudeste 0 -- -- 48
2021-02-09 11:00:00 9.7 10 Sudeste 21 Sudeste 0 -- -- 77
2021-02-09 10:00:00 9.8 3 Sudoeste 9 Nordeste 0.4 -- -- 82
2021-02-09 09:00:00 10.2 3 Nordeste 10 Sudoeste 0 -- -- 75
2021-02-09 08:00:00 11.5 2 Nordeste 18 Sur 0 -- -- 66
2021-02-09 07:00:00 13.2 9 Sudoeste 25 Sur 0 -- -- 52
2021-02-09 06:00:00 12.4 3 Oeste 15 Sur 0 -- -- 58
2021-02-09 05:00:00 13 7 Sudoeste 31 Oeste 0 -- -- 52
2021-02-09 04:00:00 11.6 4 Noroeste 27 Sudeste 0 -- -- 60
2021-02-09 03:00:00 8.1 7 Nordeste 19 Este 0 -- -- 82
2021-02-09 02:00:00 7.7 9 Nordeste 18 Nordeste 0 -- -- 85
2021-02-09 01:00:00 6.9 4 Nordeste 13 Este 0 -- -- 90
2021-02-09 00:00:00 7.2 3 Nordeste 6 Nordeste 0 -- -- 91
2021-02-08 23:00:00 7.4 2 Nordeste 10 Este 0 -- -- 90
2021-02-08 22:00:00 7.5 3 Nordeste 6 Nordeste 0 -- -- 90
2021-02-08 21:00:00 8 0 Calma 5 Nordeste 0 -- -- 85
2021-02-08 20:00:00 9.5 2 Noroeste 11 Nordeste 0 -- -- 78
2021-02-08 19:00:00 10.8 2 Sudeste 19 Oeste 0 -- -- 73
2021-02-08 18:00:00 13.6 7 Oeste 25 Sudoeste 0 -- -- 54
2021-02-08 17:00:00 14.3 10 Oeste 24 Sudoeste 0 -- -- 55
2021-02-08 16:00:00 14.2 14 Oeste 28 Noroeste 0 -- -- 53
2021-02-08 15:00:00 14.8 2 Este 9 Nordeste 0 -- -- 55
2021-02-08 14:00:00 13.8 4 Nordeste 12 Norte 0 -- -- 62
2021-02-08 13:00:00 14.1 5 Noroeste 14 Nordeste 0 -- -- 59
2021-02-08 12:00:00 10.4 0 Calma 6 Sudoeste 0 -- -- 74
2021-02-08 11:00:00 6.8 0 Calma 6 Oeste 0 -- -- 98
2021-02-08 10:00:00 4.9 2 Nordeste 8 Nordeste 0 -- -- 99
2021-02-08 09:00:00 4.3 4 Nordeste 10 Nordeste 0 -- -- 99
2021-02-08 08:00:00 4.9 2 Sudeste 10 Nordeste 0 -- -- 98
2021-02-08 07:00:00 5.5 0 Calma 5 Nordeste 0 -- -- 97
2021-02-08 06:00:00 6.4 0 Calma 7 Oeste 0 -- -- 95
2021-02-08 05:00:00 7.5 3 Nordeste 8 Noroeste 0 -- -- 93
2021-02-08 04:00:00 8.5 2 Sur 10 Oeste 0 -- -- 88
2021-02-08 03:00:00 10.7 2 Nordeste 27 Sur 0 -- -- 77
2021-02-08 02:00:00 12.7 7 Sur 29 Sudoeste 0 -- -- 57
2021-02-08 01:00:00 12.6 12 Sudoeste 30 Sudoeste 0 -- -- 59
2021-02-08 00:00:00 12.5 14 Sudoeste 43 Sudoeste 0 -- -- 61
2021-02-07 23:00:00 7.8 0 Calma 16 Norte 0 -- -- 97
2021-02-07 22:00:00 7.9 6 Nordeste 15 Norte 0 -- -- 98
2021-02-07 21:00:00 7.4 6 Nordeste 17 Norte 0 -- -- 99
2021-02-07 20:00:00 6.9 2 Noroeste 10 Nordeste 0 -- -- 98
2021-02-07 19:00:00 7.3 0 Calma 10 Norte 0 -- -- 96
2021-02-07 18:00:00 7.9 2 Norte 6 Norte 0.4 -- -- 94
2021-02-07 17:00:00 7.8 2 Oeste 7 Sudoeste 0.6 -- -- 92
2021-02-07 16:00:00 7.5 5 Este 13 Nordeste 0.6 -- -- 87
2021-02-07 15:00:00 7.9 0 Calma 5 Sudoeste 0.2 -- -- 82
2021-02-07 14:00:00 7.7 2 Sur 7 Nordeste 0 -- -- 83
2021-02-07 13:00:00 6.9 0 Calma 7 Noroeste 0.2 -- -- 86
2021-02-07 12:00:00 5.8 3 Sudoeste 11 Norte 0 -- -- 86
2021-02-07 11:00:00 4.6 3 Sudoeste 9 Este 0 -- -- 93
2021-02-07 10:00:00 3.6 2 Sur 6 Este 0 -- -- 95
2021-02-07 09:00:00 3.1 2 Sudoeste 12 Sudeste 0 -- -- 96
2021-02-07 08:00:00 3 3 Norte 10 Sur 0.2 -- -- 97
2021-02-07 07:00:00 2.8 3 Nordeste 9 Nordeste 0 -- -- 99
2021-02-07 06:00:00 2.7 4 Sur 12 Sudeste 0 -- -- 99
2021-02-07 05:00:00 3 0 Calma 8 Este 0 -- -- 100
2021-02-07 04:00:00 3.2 0 Calma 5 Sur 0 -- -- 100
2021-02-07 03:00:00 3.2 0 Calma 6 Sudoeste 0 -- -- 100
2021-02-07 02:00:00 3.6 0 Calma 4 Nordeste 0 -- -- 99
2021-02-07 01:00:00 4.2 2 Nordeste 4 Nordeste 0 -- -- 99
2021-02-07 00:00:00 3.9 0 Calma 3 Nordeste 0 -- -- 99
2021-02-06 23:00:00 4.1 0 Calma 4 Nordeste 0 -- -- 97
2021-02-06 22:00:00 5.4 0 Calma 9 Noroeste 1.8 -- -- 96
2021-02-06 21:00:00 5.9 0 Calma 5 Norte 0 -- -- 97
2021-02-06 20:00:00 6 3 Norte 8 Norte 0.2 -- -- 96
2021-02-06 19:00:00 6.3 0 Calma 23 Sudoeste 1.2 -- -- 91
2021-02-06 18:00:00 7.4 2 Sudoeste 12 Oeste 0.4 -- -- 94
2021-02-06 17:00:00 7.6 0 Calma 8 Sudoeste 0.2 -- -- 94
2021-02-06 16:00:00 7.7 3 Sudoeste 10 Oeste 0.8 -- -- 93
2021-02-06 15:00:00 7.9 0 Calma 17 Noroeste 1.8 -- -- 94
2021-02-06 14:00:00 8.1 0 Calma 12 Oeste 1.4 -- -- 94
2021-02-06 13:00:00 8.1 4 Nordeste 15 Este 1.8 -- -- 94
2021-02-06 12:00:00 8 9 Oeste 19 Oeste 2.2 -- -- 98
2021-02-06 11:00:00 7.7 2 Sudoeste 4 Sur 0.8 -- -- 99
2021-02-06 10:00:00 7.6 0 Calma 5 Sudoeste 1 -- -- 99
2021-02-06 09:00:00 7.5 0 Calma 4 Sur 0.8 -- -- 99
2021-02-06 08:00:00 7.7 0 Calma 5 Oeste 2 -- -- 98
2021-02-06 07:00:00 7.9 0 Calma 5 Sudoeste 0.8 -- -- 97
2021-02-06 06:00:00 8 2 Norte 8 Norte 2.4 -- -- 97
2021-02-06 05:00:00 8.1 3 Sudoeste 6 Noroeste 3 -- -- 97
2021-02-06 04:00:00 8.3 2 Norte 13 Noroeste 2.2 -- -- 96
2021-02-06 03:00:00 8.4 0 Calma 15 Noroeste 2.6 -- -- 96
2021-02-06 02:00:00 8.6 2 Noroeste 12 Norte 2.4 -- -- 95
2021-02-06 01:00:00 8.9 3 Sur 12 Oeste 2 -- -- 96
2021-02-06 00:00:00 9 3 Oeste 10 Oeste 2.6 -- -- 97
2021-02-05 23:00:00 9.1 2 Sudoeste 11 Sudoeste 3.8 -- -- 96
2021-02-05 22:00:00 9.2 4 Oeste 10 Oeste 3.2 -- -- 98
2021-02-05 21:00:00 8.9 4 Sudoeste 7 Oeste 2.8 -- -- 99
2021-02-05 20:00:00 8.9 4 Sudoeste 7 Sudoeste 3 -- -- 98
2021-02-05 19:00:00 9 0 Calma 3 Sudoeste 3 -- -- 97
2021-02-05 18:00:00 9.4 0 Calma 5 Sudoeste 1.4 -- -- 96
2021-02-05 17:00:00 9.8 0 Calma 3 Sudoeste 1.2 -- -- 95
2021-02-05 16:00:00 10.1 0 Calma 3 Sudoeste 0.6 -- -- 93
2021-02-05 15:00:00 10.6 0 Calma 4 Sur 0.2 -- -- 90
2021-02-05 14:00:00 10.2 0 Calma 2 Este 0 -- -- 92
2021-02-05 13:00:00 9.2 0 Calma 4 Norte 0.6 -- -- 96
2021-02-05 12:00:00 8.6 0 Calma 3 Norte 0.6 -- -- 97
2021-02-05 11:00:00 8 0 Calma 4 Norte 0 -- -- 99
2021-02-05 10:00:00 7.5 0 Calma 3 Nordeste 0 -- -- 99
2021-02-05 09:00:00 7 0 Calma 2 Norte 0 -- -- 99
2021-02-05 08:00:00 6.9 0 Calma 3 Norte 0 -- -- 99
2021-02-05 07:00:00 6.9 0 Calma 2 Sudoeste 0 -- -- 98
2021-02-05 06:00:00 7.1 0 Calma 2 Nordeste 0 -- -- 98
2021-02-05 05:00:00 6.9 0 Calma 3 Noroeste 0 -- -- 98
2021-02-05 04:00:00 6.8 0 Calma 3 Nordeste 0 -- -- 98
2021-02-05 03:00:00 6.3 0 Calma 3 Nordeste 0 -- -- 98
2021-02-05 02:00:00 6.6 3 Norte 5 Nordeste 0 -- -- 97
2021-02-05 01:00:00 6.8 0 Calma 3 Norte 0 -- -- 96
2021-02-05 00:00:00 7.5 2 Nordeste 4 Nordeste 0 -- -- 94
2021-02-04 23:00:00 8.3 0 Calma 3 Nordeste 0 -- -- 93
2021-02-04 22:00:00 8.8 0 Calma 4 Nordeste 0 -- -- 92
2021-02-04 21:00:00 9.3 0 Calma 3 Norte 0 -- -- 90
2021-02-04 20:00:00 10.3 0 Calma 4 Sudoeste 0 -- -- 86
2021-02-04 19:00:00 11.1 0 Calma 4 Sudoeste 0 -- -- 82
2021-02-04 18:00:00 11.9 0 Calma 6 Noroeste 0 -- -- 79
2021-02-04 17:00:00 12.4 0 Calma 9 Oeste 0 -- -- 74
2021-02-04 16:00:00 12.2 0 Calma 8 Oeste 0 -- -- 74
2021-02-04 15:00:00 12.3 0 Calma 8 Sudoeste 0 -- -- 72
2021-02-04 14:00:00 11.7 4 Sudoeste 10 Sudoeste 0 -- -- 74
2021-02-04 13:00:00 10.5 3 Sudoeste 6 Sudoeste 0 -- -- 78
2021-02-04 12:00:00 9.1 0 Calma 3 Nordeste 0 -- -- 85
2021-02-04 11:00:00 8.1 2 Sudoeste 5 Sudoeste 0 -- -- 90
2021-02-04 10:00:00 6.6 0 Calma 3 Sudoeste 0 -- -- 97
2021-02-04 09:00:00 6 0 Calma 3 Norte 0 -- -- 97
2021-02-04 08:00:00 6 0 Calma 6 Nordeste 0 -- -- 96
2021-02-04 07:00:00 6.5 6 Nordeste 12 Nordeste 0 -- -- 97
2021-02-04 06:00:00 6.1 0 Calma 4 Nordeste 0 -- -- 96
2021-02-04 05:00:00 6.4 0 Calma 4 Nordeste 0 -- -- 94
2021-02-04 04:00:00 7 0 Calma 4 Este 0 -- -- 94
2021-02-04 03:00:00 7.4 0 Calma 3 Sudoeste 0 -- -- 92
2021-02-04 02:00:00 7.7 0 Calma 5 Este 0 -- -- 90
2021-02-04 01:00:00 8.5 0 Calma 4 Sur 0 -- -- 86
2021-02-04 00:00:00 9.5 2 Nordeste 6 Sudoeste 0 -- -- 82
2021-02-03 23:00:00 10 3 Sudoeste 5 Sudoeste 0 -- -- 79
2021-02-03 22:00:00 10.5 0 Calma 5 Oeste 0 -- -- 78
2021-02-03 21:00:00 11.4 0 Calma 5 Sudoeste 0 -- -- 73
2021-02-03 20:00:00 12.2 0 Calma 7 Nordeste 0 -- -- 70
2021-02-03 19:00:00 14.2 0 Calma 20 Sur 0 -- -- 59
2021-02-03 18:00:00 16.8 6 Sudeste 21 Sudoeste 0 -- -- 42
2021-02-03 17:00:00 19.2 7 Sur 24 Sur 0 -- -- 39
2021-02-03 16:00:00 19.9 8 Sur 26 Oeste 0 -- -- 34
2021-02-03 15:00:00 19.7 10 Sur 27 Sudoeste 0 -- -- 32
2021-02-03 14:00:00 19.5 8 Sudoeste 22 Sur 0 -- -- 31
2021-02-03 13:00:00 18.9 2 Nordeste 13 Sur 0 -- -- 37
2021-02-03 12:00:00 16.3 3 Sudeste 18 Nordeste 0 -- -- 51
2021-02-03 11:00:00 12.6 3 Nordeste 16 Nordeste 0 -- -- 66
2021-02-03 10:00:00 10 3 Sudoeste 15 Nordeste 0 -- -- 77
2021-02-03 09:00:00 8.8 2 Nordeste 13 Nordeste 0 -- -- 88
2021-02-03 08:00:00 9.3 3 Sur 14 Norte 0 -- -- 95
2021-02-03 07:00:00 9.1 4 Este 10 Sudoeste 0 -- -- 97
2021-02-03 06:00:00 10 2 Sur 9 Oeste 0 -- -- 96
2021-02-03 05:00:00 10.9 2 Nordeste 7 Oeste 0.2 -- -- 94
2021-02-03 04:00:00 11.1 3 Sudoeste 6 Oeste 0 -- -- 92
2021-02-03 03:00:00 12.9 0 Calma 16 Nordeste 0 -- -- 85
2021-02-03 02:00:00 13.6 4 Este 17 Sudeste 0 -- -- 78
2021-02-03 01:00:00 14 4 Sudeste 21 Sudoeste 0 -- -- 70
2021-02-03 00:00:00 13.8 4 Nordeste 12 Sudeste 0 -- -- 73
2021-02-02 23:00:00 15.4 4 Nordeste 17 Sudeste 0 -- -- 67
2021-02-02 22:00:00 16.1 4 Este 13 Sur 0 -- -- 62
2021-02-02 21:00:00 15.4 3 Sur 12 Oeste 0 -- -- 66
2021-02-02 20:00:00 16.6 4 Sur 22 Sudoeste 0 -- -- 57
2021-02-02 19:00:00 17 9 Sur 24 Sudoeste 0 -- -- 59
2021-02-02 18:00:00 18.5 9 Sudoeste 37 Sudoeste 0 -- -- 55
2021-02-02 17:00:00 19.3 15 Sudoeste 40 Sudoeste 0 -- -- 50
2021-02-02 16:00:00 20.6 14 Sur 45 Sur 0 -- -- 47
2021-02-02 15:00:00 21 11 Sur 36 Sudoeste 0 -- -- 45
2021-02-02 14:00:00 18.6 8 Sur 38 Sudoeste 0 -- -- 51
2021-02-02 13:00:00 18.7 9 Sur 36 Sur 0 -- -- 51
2021-02-02 12:00:00 19.1 8 Sudeste 41 Sur 0 -- -- 48
2021-02-02 11:00:00 18.3 14 Sudoeste 43 Sudoeste 0 -- -- 49
2021-02-02 10:00:00 17.6 13 Sudoeste 45 Sudoeste 0 -- -- 50
2021-02-02 09:00:00 16 5 Sudoeste 35 Sudoeste 0 -- -- 57
2021-02-02 08:00:00 17.3 7 Sur 37 Sudoeste 0 -- -- 52
2021-02-02 07:00:00 16.9 8 Sur 28 Sudoeste 0 -- -- 50
2021-02-02 06:00:00 13.7 10 Sur 32 Sudoeste 0 -- -- 63
2021-02-02 05:00:00 7.8 2 Nordeste 6 Nordeste 0 -- -- 98
2021-02-02 04:00:00 7.5 0 Calma 4 Noroeste 0 -- -- 97
2021-02-02 03:00:00 7.7 0 Calma 3 Sudeste 0 -- -- 97
2021-02-02 02:00:00 8.2 0 Calma 4 Norte 0 -- -- 95
2021-02-02 01:00:00 8.7 0 Calma 4 Noroeste 0 -- -- 95
2021-02-02 00:00:00 9.3 2 Este 7 Oeste 0 -- -- 93
2021-02-01 23:00:00 9.9 0 Calma 5 Nordeste 0 -- -- 90
2021-02-01 22:00:00 11.5 0 Calma 8 Nordeste 0 -- -- 86
2021-02-01 21:00:00 12.8 3 Nordeste 13 Sudeste 0 -- -- 79
2021-02-01 20:00:00 14.7 3 Este 10 Norte 0 -- -- 72
2021-02-01 19:00:00 18.4 7 Norte 22 Norte 0 -- -- 56
2021-02-01 18:00:00 20.6 8 Norte 18 Norte 0 -- -- 50
2021-02-01 17:00:00 22 10 Oeste 21 Oeste 0 -- -- 44
2021-02-01 16:00:00 21.6 8 Norte 22 Oeste 0 -- -- 36
2021-02-01 15:00:00 19.8 8 Noroeste 21 Norte 0 -- -- 36
2021-02-01 14:00:00 19.2 9 Norte 21 Nordeste 0 -- -- 43
2021-02-01 13:00:00 19.7 5 Nordeste 21 Oeste 0 -- -- 47
2021-02-01 12:00:00 19.3 10 Oeste 32 Sudoeste 0 -- -- 48
2021-02-01 11:00:00 18.9 13 Oeste 37 Sudoeste 0 -- -- 48
2021-02-01 10:00:00 18.3 12 Noroeste 43 Sudoeste 0 -- -- 49
2021-02-01 09:00:00 18.4 15 Oeste 36 Oeste 0 -- -- 48
2021-02-01 08:00:00 13 8 Nordeste 18 Nordeste 0 -- -- 57
2021-02-01 07:00:00 15.3 8 Nordeste 28 Noroeste 0 -- -- 48
2021-02-01 06:00:00 17.4 8 Noroeste 38 Oeste 0 -- -- 38
2021-02-01 05:00:00 16.8 8 Norte 34 Oeste 0 -- -- 40
2021-02-01 04:00:00 16.7 13 Noroeste 43 Oeste 0 -- -- 39
2021-02-01 03:00:00 16.3 12 Noroeste 41 Oeste 0 -- -- 44
2021-02-01 02:00:00 16.4 17 Oeste 48 Sudoeste 0 -- -- 45
2021-02-01 01:00:00 16.6 18 Oeste 59 Oeste 0 -- -- 46
2021-02-01 00:00:00 16.7 16 Oeste 53 Oeste 0 -- -- 46
2021-01-31 23:00:00 16.7 19 Oeste 65 Sudoeste 0 -- -- 45
2021-01-31 22:00:00 17.2 17 Oeste 59 Oeste 0.2 -- -- 43
2021-01-31 21:00:00 18 19 Noroeste 46 Noroeste 0 -- -- 43
2021-01-31 20:00:00 18.6 17 Oeste 50 Sudoeste 0 -- -- 41
2021-01-31 19:00:00 19.5 12 Oeste 57 Noroeste 0 -- -- 40
2021-01-31 18:00:00 20.2 14 Oeste 38 Oeste 0 -- -- 39
2021-01-31 17:00:00 21.5 14 Oeste 39 Oeste 0 -- -- 32
2021-01-31 16:00:00 20.9 10 Sudoeste 37 Oeste 0 -- -- 34
2021-01-31 15:00:00 21.7 19 Oeste 45 Oeste 0 -- -- 32
2021-01-31 14:00:00 21.6 18 Oeste 38 Sudoeste 0 -- -- 33
2021-01-31 13:00:00 19.9 4 Oeste 21 Norte 0 -- -- 46
2021-01-31 12:00:00 14.1 6 Nordeste 27 Este 0 -- -- 79
2021-01-31 11:00:00 12.5 9 Este 22 Nordeste 0 -- -- 80
2021-01-31 10:00:00 11.5 4 Noroeste 23 Este 0 -- -- 80
2021-01-31 09:00:00 11.4 6 Este 18 Nordeste 0 -- -- 77
2021-01-31 08:00:00 11.5 6 Este 19 Este 0 -- -- 76
2021-01-31 07:00:00 11.2 8 Este 19 Sudeste 0 -- -- 76
2021-01-31 06:00:00 12.5 6 Nordeste 13 Este 0 -- -- 61
2021-01-31 05:00:00 14.5 5 Oeste 30 Oeste 0 -- -- 43
2021-01-31 04:00:00 14 9 Oeste 39 Sudoeste 0 -- -- 42
2021-01-31 03:00:00 13.3 7 Noroeste 37 Oeste 0 -- -- 50
2021-01-31 02:00:00 12.9 15 Oeste 43 Noroeste 0 -- -- 53
2021-01-31 01:00:00 12.6 9 Noroeste 36 Oeste 0 -- -- 59
2021-01-31 00:00:00 12.5 13 Oeste 51 Oeste 0 -- -- 59